Terminal Aerodrome Forecast
Issued by NWS

Home | Current Version | Previous Version | Text Only | Print | Product List | Glossary On
Versions: 1 2 3 4 5 6 7 8 9 10 11 12 13 14 15 16 17 18 19 20 21 22 23 24 25
717
FTUS43 KMQT 230534
TAFCMX
TAF
KCMX 230534Z 2306/2406 14007KT P6SM SCT130 WS020/23040KT
     FM230900 22006KT P6SM BKN150 WS020/24040KT
     FM231200 22005KT P6SM SCT200
     FM231400 24009KT P6SM SCT200
     FM232300 31005KT P6SM SCT200
     FM240200 03003KT P6SM BKN100=

USA.gov is the U.S. government's official web portal to all federal, state and local government web resources and services.